Flight Track Log - Related Links

Times and Time Zones

All times are in EDT time to prevent confusion due to time zone crossing. See the RPA3143 flight status page for this flight to view local times or setup timezone preferences in your user account.

Time Position Orientation Groundspeed Altitude Reporting Facility
EDT Latitude Longitude Course Direction KTS MPH feet Rate Location/Type
Thu 08:04:35 AM 38.8856 -77.0664 233° Southwest 169 194 1,800  Level Washington Center
Thu 08:05:41 AM 38.9333 -77.1167 321° Northwest 250 288 3,700 2,190 Climbing Potomac TRACON
Thu 08:06:00 AM 38.6319 -77.2848 218° Southwest  Level FlightAware Approximate
Thu 08:06:41 AM 38.9500 -77.2000 284° West 288 331 6,400  Level Potomac TRACON
Thu 08:07:00 AM 38.5525 -77.3642 218° Southwest  Level FlightAware Approximate
Thu 08:07:35 AM 38.8833 -77.2500 210° Southwest 297 342 8,900  Level Potomac TRACON
Thu 08:08:00 AM 38.4795 -77.4526 225° Southwest  Level FlightAware Approximate
Thu 08:08:36 AM 38.8167 -77.3000 210° Southwest 316 364 10,800  Level Potomac TRACON
Thu 08:09:00 AM 38.4059 -77.5387 201° Southwest  Level FlightAware Approximate
Thu 08:10:00 AM 38.3369 -77.6274 233° Southwest  Level FlightAware Approximate
Thu 08:10:35 AM 38.6411 -77.4097 206° Southwest 339 390 14,900  Level Washington Center
Thu 08:11:36 AM 38.5547 -77.4686 208° Southwest 344 396 17,000 1,820 Climbing Washington Center
Thu 08:12:37 AM 38.4622 -77.5272 206° Southwest 355 409 18,600 1,613 Climbing Washington Center
Thu 08:13:35 AM 38.3819 -77.5861 210° Southwest 362 417 20,200 1,664 Climbing Washington Center
Thu 08:14:36 AM 38.3156 -77.6903 231° Southwest 367 422 21,900 1,574 Climbing Washington Center
Thu 08:15:37 AM 38.2469 -77.7967 231° Southwest 378 435 23,400 1,462 Climbing Washington Center
Thu 08:16:35 AM 38.1761 -77.9056 230° Southwest 396 456 24,800 1,412 Climbing Washington Center
Thu 08:17:36 AM 38.1050 -78.0142 230° Southwest 406 467 26,200 1,279 Climbing Washington Center
Thu 08:18:37 AM 38.0319 -78.1253 230° Southwest 411 473 27,400 1,050 Climbing Washington Center
Thu 08:19:36 AM 37.9483 -78.2225 223° Southwest 411 473 28,300 1,050 Climbing Washington Center
Thu 08:20:37 AM 37.8419 -78.3214 216° Southwest 416 479 29,500 1,059 Climbing Washington Center
Thu 08:21:35 AM 37.7439 -78.4069 215° Southwest 428 493 30,400 966 Climbing Washington Center
Thu 08:22:35 AM 37.6283 -78.4447 195° South 428 493 31,400 992 Climbing Washington Center
Thu 08:23:36 AM 37.5128 -78.4822 194° South 433 498 32,400 942 Climbing Washington Center
Thu 08:24:36 AM 37.4192 -78.5519 211° Southwest 433 498 33,300 793 Climbing Washington Center
Thu 08:25:37 AM 37.3486 -78.6275 220° Southwest 428 493 34,000 942 Climbing Washington Center
Thu 08:26:37 AM 37.2392 -78.7406 219° Southwest 428 493 35,200 1,017 Climbing Washington Center
Thu 08:27:35 AM 37.1511 -78.8336 220° Southwest 423 487 36,000 403 Climbing Washington Center
Thu 08:28:36 AM 37.0633 -78.9236 219° Southwest 417 480 36,000  Level Washington Center
Thu 08:29:36 AM 36.9622 -79.0308 220° Southwest 422 486 36,000  Level Washington Center
Thu 08:30:37 AM 36.8675 -79.1278 219° Southwest 435 501 36,000  Level Washington Center
Thu 08:31:37 AM 36.7728 -79.2300 221° Southwest 442 509 36,000  Level Washington Center
Thu 08:33:38 AM 36.5825 -79.4214 219° Southwest 459 528 36,000  Level Atlanta Center
Thu 08:34:38 AM 36.4842 -79.5225 220° Southwest 459 528 36,000  Level Atlanta Center
Thu 08:35:38 AM 36.3775 -79.6344 220° Southwest 454 522 36,000  Level Atlanta Center
Thu 08:36:38 AM 36.2789 -79.7350 219° Southwest 459 528 36,000  Level Atlanta Center
Thu 08:37:38 AM 36.1803 -79.8356 219° Southwest 459 528 36,000  Level Atlanta Center
Thu 08:38:38 AM 36.0814 -79.9356 219° Southwest 459 528 36,000  Level Atlanta Center
Thu 08:39:38 AM 35.9792 -79.9972 206° Southwest 459 528 36,000  Level Atlanta Center
Thu 08:40:38 AM 35.8594 -80.0367 195° South 447 514 36,000  Level Atlanta Center
Thu 08:41:38 AM 35.7358 -80.0783 195° South 452 520 36,000  Level Atlanta Center
Thu 08:42:38 AM 35.6036 -80.1206 195° South 452 520 36,000  Level Atlanta Center
Thu 08:43:38 AM 35.4839 -80.1619 196° South 452 520 36,000  Level Atlanta Center
Thu 08:44:38 AM 35.3619 -80.2008 195° South 452 520 36,000  Level Atlanta Center
Thu 08:45:38 AM 35.2400 -80.2397 195° South 452 520 36,000  Level Atlanta Center
Thu 08:47:30 AM 35.0117 -80.3150 195° South 466 536 36,000  Level Jacksonville Center
Thu 08:48:30 AM 34.8936 -80.3539 195° South 461 531 36,000  Level Jacksonville Center
Thu 08:49:30 AM 34.7711 -80.3906 194° South 454 522 36,000  Level Jacksonville Center
Thu 08:50:30 AM 34.6511 -80.4319 196° South 449 517 36,000  Level Jacksonville Center
Thu 08:51:30 AM 34.5328 -80.4681 194° South 449 517 36,000  Level Jacksonville Center
Thu 08:52:30 AM 34.4125 -80.4964 191° South 449 517 36,000  Level Jacksonville Center
Thu 08:53:30 AM 34.2900 -80.5225 190° South 449 517 36,000  Level Jacksonville Center
Thu 08:54:30 AM 34.1694 -80.5483 190° South 449 517 36,000  Level Jacksonville Center
Thu 08:55:30 AM 34.0489 -80.5792 192° South 449 517 36,000  Level Jacksonville Center
Thu 08:56:30 AM 33.9325 -80.6047 190° South 444 511 36,000  Level Jacksonville Center
Thu 08:57:30 AM 33.8100 -80.6306 190° South 444 511 36,000  Level Jacksonville Center
Thu 08:58:30 AM 33.6936 -80.6583 191° South 444 511 36,000  Level Jacksonville Center
Thu 08:59:30 AM 33.5731 -80.6864 191° South 444 511 36,000  Level Jacksonville Center
Thu 09:00:30 AM 33.4503 -80.7119 190° South 444 511 36,000  Level Jacksonville Center
Thu 09:01:30 AM 33.3297 -80.7422 192° South 449 517 36,000  Level Jacksonville Center
Thu 09:02:30 AM 33.2069 -80.7675 190° South 449 517 36,000  Level Jacksonville Center
Thu 09:03:30 AM 33.0844 -80.7978 192° South 449 517 36,000  Level Jacksonville Center
Thu 09:04:30 AM 32.9617 -80.8203 189° South 449 517 36,000  Level Jacksonville Center
Thu 09:05:30 AM 32.8411 -80.8503 192° South 449 517 36,000  Level Jacksonville Center
Thu 09:06:30 AM 32.7203 -80.8753 190° South 449 517 36,000  Level Jacksonville Center
Thu 09:07:30 AM 32.5953 -80.8878 185° South 447 514 36,000  Level Jacksonville Center
Thu 09:08:30 AM 32.4744 -80.8956 183° South 436 502 36,000  Level Jacksonville Center
Thu 09:09:30 AM 32.3575 -80.9031 183° South 431 496 36,000  Level Jacksonville Center
Thu 09:10:30 AM 32.2492 -80.9103 183° South 438 504 36,000  Level Jacksonville Center
Thu 09:11:30 AM 32.1136 -80.9181 183° South 444 511 36,000  Level Jacksonville Center
Thu 09:12:30 AM 31.9925 -80.9256 183° South 444 511 36,000  Level Jacksonville Center
Thu 09:13:30 AM 31.8822 -80.9353 184° South 444 511 36,000 -50 Level Jacksonville Center
Thu 09:14:31 AM 31.7486 -80.9453 184° South 444 511 35,900 -550 Descending Jacksonville Center
Thu 09:15:30 AM 31.6236 -80.9531 183° South 444 511 34,900 -1,059 Descending Jacksonville Center
Thu 09:16:30 AM 31.5131 -80.9600 183° South 443 510 33,800 -1,250 Descending Jacksonville Center
Thu 09:17:30 AM 31.3775 -80.9703 184° South 461 531 32,400 -900 Descending Jacksonville Center
Thu 09:18:30 AM 31.2439 -80.9803 184° South 466 536 32,000 -200 Descending Jacksonville Center
Thu 09:19:30 AM 31.1167 -80.9900 184° South 466 536 32,000  Level Jacksonville Center
Thu 09:20:30 AM 30.9872 -80.9975 183° South 467 537 32,000  Level Jacksonville Center
Thu 09:21:30 AM 30.8558 -81.0025 182° South 467 537 32,000  Level Jacksonville Center
Thu 09:22:30 AM 30.7308 -81.0122 184° South 467 537 32,000  Level Jacksonville Center
Thu 09:23:31 AM 30.6056 -81.0219 184° South 462 532 32,000  Level Jacksonville Center
Thu 09:24:31 AM 30.4783 -81.0294 183° South 457 526 32,000  Level Jacksonville Center
Thu 09:25:30 AM 30.3492 -81.0414 185° South 459 528 32,000  Level Jacksonville Center
Thu 09:26:31 AM 30.2261 -81.0511 184° South 459 528 32,000  Level Jacksonville Center
Thu 09:27:30 AM 30.1008 -81.0583 183° South 459 528 32,000 -756 Level Jacksonville Center
Thu 09:28:30 AM 29.9758 -81.0656 183° South 459 528 30,500 -1,884 Descending Jacksonville Center
Thu 09:29:31 AM 29.8547 -81.0750 184° South 454 522 28,200 -2,100 Descending Jacksonville Center
Thu 09:30:30 AM 29.7547 -81.0817 183° South 454 522 26,300 -2,218 Descending Jacksonville Center
Thu 09:31:30 AM 29.6275 -81.0936 185° South 439 505 23,800 -2,300 Descending Jacksonville Center
Thu 09:32:30 AM 29.5169 -81.1003 183° South 420 483 21,700 -2,050 Descending Jacksonville Center
Thu 09:33:30 AM 29.4128 -81.1094 184° South 397 457 19,700 -1,950 Descending Jacksonville Center
Thu 09:34:30 AM 29.3064 -81.1136 182° South 384 442 17,800 -2,083 Descending Jacksonville Center
Thu 09:35:31 AM 29.1956 -81.1108 179° South 390 449 15,500 -2,150 Descending Jacksonville Center
Thu 09:36:30 AM 29.0911 -81.0986 174° South 390 449 13,500 -1,765 Descending Jacksonville Center
Thu 09:37:30 AM 28.9950 -81.0883 175° South 368 423 12,000 -750 Descending Jacksonville Center
Thu 09:38:30 AM 28.9133 -81.0803 175° South 329 379 12,000 -450 Level Jacksonville Center
Thu 09:39:30 AM 28.8400 -81.0439 157° South 301 346 11,100 -1,450 Descending Jacksonville Center
Thu 09:40:30 AM 28.7606 -81.0336 174° South 289 333 9,100 -1,950 Descending Jacksonville Center
Thu 09:41:30 AM 28.7261 -81.1169 245° Southwest 240 276 7,200 -1,935 Descending Jacksonville Center
Thu 09:42:03 AM 28.7167 -81.1667 258° West 292 336 6,100 -1,852 Descending Orlando TRACON
Thu 09:42:51 AM 28.6833 -81.2333 240° Southwest 285 328 4,700 -1,278 Descending Orlando TRACON
Thu 09:43:51 AM 28.6167 -81.2833 213° Southwest 254 292 3,800 -900 Descending Orlando TRACON

Login

Don't have an account? Register now (free) for customized features, flight alerts, and more!